sensor_id;sensor_type;location;lat;lon;timestamp;temperature;humidity
22680;DHT22;11507;44.858;10.374;2023-03-13T00:00:55;4.80;99.90
22680;DHT22;11507;44.858;10.374;2023-03-13T00:03:23;4.80;99.90
22680;DHT22;11507;44.858;10.374;2023-03-13T00:05:49;4.80;99.90
22680;DHT22;11507;44.858;10.374;2023-03-13T00:08:15;4.70;99.90
22680;DHT22;11507;44.858;10.374;2023-03-13T00:10:41;4.70;99.90
22680;DHT22;11507;44.858;10.374;2023-03-13T00:13:08;4.70;99.90
22680;DHT22;11507;44.858;10.374;2023-03-13T00:15:34;4.60;99.90
22680;DHT22;11507;44.858;10.374;2023-03-13T00:18:00;4.60;99.90
22680;DHT22;11507;44.858;10.374;2023-03-13T00:20:26;4.60;99.90
22680;DHT22;11507;44.858;10.374;2023-03-13T00:22:51;4.70;99.90
22680;DHT22;11507;44.858;10.374;2023-03-13T00:25:17;4.70;99.90
22680;DHT22;11507;44.858;10.374;2023-03-13T00:27:44;4.60;99.90
22680;DHT22;11507;44.858;10.374;2023-03-13T00:30:10;4.70;99.90
22680;DHT22;11507;44.858;10.374;2023-03-13T00:32:42;4.60;99.90
22680;DHT22;11507;44.858;10.374;2023-03-13T00:35:08;4.50;99.90
22680;DHT22;11507;44.858;10.374;2023-03-13T00:37:34;4.40;99.90
22680;DHT22;11507;44.858;10.374;2023-03-13T00:40:00;4.40;99.90
22680;DHT22;11507;44.858;10.374;2023-03-13T00:42:25;4.40;99.90
22680;DHT22;11507;44.858;10.374;2023-03-13T00:44:54;4.40;99.90
22680;DHT22;11507;44.858;10.374;2023-03-13T00:47:19;4.50;99.90
22680;DHT22;11507;44.858;10.374;2023-03-13T00:49:45;4.40;99.90
22680;DHT22;11507;44.858;10.374;2023-03-13T00:52:12;4.50;99.90
22680;DHT22;11507;44.858;10.374;2023-03-13T00:54:38;4.50;99.90
22680;DHT22;11507;44.858;10.374;2023-03-13T00:57:04;4.50;99.90
22680;DHT22;11507;44.858;10.374;2023-03-13T00:59:30;4.50;99.90
22680;DHT22;11507;44.858;10.374;2023-03-13T01:01:57;4.50;99.90
22680;DHT22;11507;44.858;10.374;2023-03-13T01:04:23;4.60;99.90
22680;DHT22;11507;44.858;10.374;2023-03-13T01:06:49;4.70;99.90
22680;DHT22;11507;44.858;10.374;2023-03-13T01:09:16;4.70;99.90
22680;DHT22;11507;44.858;10.374;2023-03-13T01:11:43;4.60;99.90
22680;DHT22;11507;44.858;10.374;2023-03-13T01:14:16;4.50;99.90
22680;DHT22;11507;44.858;10.374;2023-03-13T01:16:42;4.50;99.90
22680;DHT22;11507;44.858;10.374;2023-03-13T01:19:11;4.50;99.90
22680;DHT22;11507;44.858;10.374;2023-03-13T01:21:38;4.50;99.90
22680;DHT22;11507;44.858;10.374;2023-03-13T01:24:04;4.50;99.90
22680;DHT22;11507;44.858;10.374;2023-03-13T01:26:30;4.50;99.90
22680;DHT22;11507;44.858;10.374;2023-03-13T01:28:56;4.40;99.90
22680;DHT22;11507;44.858;10.374;2023-03-13T01:31:27;4.40;99.90
22680;DHT22;11507;44.858;10.374;2023-03-13T01:33:55;4.30;99.90
22680;DHT22;11507;44.858;10.374;2023-03-13T01:36:21;4.20;99.90
22680;DHT22;11507;44.858;10.374;2023-03-13T01:38:49;4.20;99.90
22680;DHT22;11507;44.858;10.374;2023-03-13T01:41:16;4.20;99.90
22680;DHT22;11507;44.858;10.374;2023-03-13T01:43:44;4.30;99.90
22680;DHT22;11507;44.858;10.374;2023-03-13T01:46:16;4.30;99.90
22680;DHT22;11507;44.858;10.374;2023-03-13T01:49:10;4.40;99.90
22680;DHT22;11507;44.858;10.374;2023-03-13T01:52:01;4.40;99.90
22680;DHT22;11507;44.858;10.374;2023-03-13T01:54:36;4.50;99.90
22680;DHT22;11507;44.858;10.374;2023-03-13T01:57:23;4.60;99.90
22680;DHT22;11507;44.858;10.374;2023-03-13T01:59:58;4.60;99.90
22680;DHT22;11507;44.858;10.374;2023-03-13T02:02:25;4.60;99.90
22680;DHT22;11507;44.858;10.374;2023-03-13T02:04:55;4.60;99.90
22680;DHT22;11507;44.858;10.374;2023-03-13T02:07:38;4.60;99.90
22680;DHT22;11507;44.858;10.374;2023-03-13T02:10:04;4.70;99.90
22680;DHT22;11507;44.858;10.374;2023-03-13T02:12:33;4.70;99.90
22680;DHT22;11507;44.858;10.374;2023-03-13T02:15:06;4.70;99.90
22680;DHT22;11507;44.858;10.374;2023-03-13T02:17:34;4.70;99.90
22680;DHT22;11507;44.858;10.374;2023-03-13T02:20:02;4.80;99.90
22680;DHT22;11507;44.858;10.374;2023-03-13T02:28:00;4.80;99.90
22680;DHT22;11507;44.858;10.374;2023-03-13T02:30:30;4.80;99.90
22680;DHT22;11507;44.858;10.374;2023-03-13T02:32:56;4.80;99.90
22680;DHT22;11507;44.858;10.374;2023-03-13T02:35:22;4.80;99.90
22680;DHT22;11507;44.858;10.374;2023-03-13T02:37:52;4.90;99.90
22680;DHT22;11507;44.858;10.374;2023-03-13T02:40:24;4.90;99.90
22680;DHT22;11507;44.858;10.374;2023-03-13T02:42:51;4.90;99.90
22680;DHT22;11507;44.858;10.374;2023-03-13T02:45:18;5.00;99.90
22680;DHT22;11507;44.858;10.374;2023-03-13T02:47:45;5.00;99.90
22680;DHT22;11507;44.858;10.374;2023-03-13T02:50:11;5.00;99.90
22680;DHT22;11507;44.858;10.374;2023-03-13T02:52:42;5.00;99.90
22680;DHT22;11507;44.858;10.374;2023-03-13T02:55:16;5.00;99.90
22680;DHT22;11507;44.858;10.374;2023-03-13T02:57:44;5.00;99.90
22680;DHT22;11507;44.858;10.374;2023-03-13T03:00:10;5.00;99.90
22680;DHT22;11507;44.858;10.374;2023-03-13T03:02:44;5.00;99.90
22680;DHT22;11507;44.858;10.374;2023-03-13T03:05:10;5.00;99.90
22680;DHT22;11507;44.858;10.374;2023-03-13T03:07:37;5.00;99.90
22680;DHT22;11507;44.858;10.374;2023-03-13T03:10:06;4.90;99.90
22680;DHT22;11507;44.858;10.374;2023-03-13T03:12:34;4.90;99.90
22680;DHT22;11507;44.858;10.374;2023-03-13T03:15:00;4.90;99.90
22680;DHT22;11507;44.858;10.374;2023-03-13T03:17:27;4.90;99.90
22680;DHT22;11507;44.858;10.374;2023-03-13T03:19:52;4.90;99.90
22680;DHT22;11507;44.858;10.374;2023-03-13T03:22:19;4.90;99.90
22680;DHT22;11507;44.858;10.374;2023-03-13T03:24:44;4.90;99.90
22680;DHT22;11507;44.858;10.374;2023-03-13T03:27:10;5.00;99.90
22680;DHT22;11507;44.858;10.374;2023-03-13T03:29:44;5.00;99.90
22680;DHT22;11507;44.858;10.374;2023-03-13T03:32:09;5.00;99.90
22680;DHT22;11507;44.858;10.374;2023-03-13T03:34:36;5.10;99.90
22680;DHT22;11507;44.858;10.374;2023-03-13T03:37:03;5.00;99.90
22680;DHT22;11507;44.858;10.374;2023-03-13T03:39:28;5.00;99.90
22680;DHT22;11507;44.858;10.374;2023-03-13T03:41:55;5.00;99.90
22680;DHT22;11507;44.858;10.374;2023-03-13T03:44:21;5.00;99.90
22680;DHT22;11507;44.858;10.374;2023-03-13T03:46:52;5.00;99.90
22680;DHT22;11507;44.858;10.374;2023-03-13T03:49:19;5.00;99.90
22680;DHT22;11507;44.858;10.374;2023-03-13T03:51:46;5.00;99.90
22680;DHT22;11507;44.858;10.374;2023-03-13T03:54:13;5.00;99.90
22680;DHT22;11507;44.858;10.374;2023-03-13T03:56:39;5.00;99.90
22680;DHT22;11507;44.858;10.374;2023-03-13T03:59:05;5.10;99.90
22680;DHT22;11507;44.858;10.374;2023-03-13T04:01:40;5.10;99.90
22680;DHT22;11507;44.858;10.374;2023-03-13T04:04:06;5.10;99.90
22680;DHT22;11507;44.858;10.374;2023-03-13T04:06:32;5.00;99.90
22680;DHT22;11507;44.858;10.374;2023-03-13T04:08:59;5.00;99.90
22680;DHT22;11507;44.858;10.374;2023-03-13T04:11:27;4.90;99.90
22680;DHT22;11507;44.858;10.374;2023-03-13T04:13:54;4.90;99.90
22680;DHT22;11507;44.858;10.374;2023-03-13T04:16:23;4.90;99.90
22680;DHT22;11507;44.858;10.374;2023-03-13T04:18:50;4.90;99.90
22680;DHT22;11507;44.858;10.374;2023-03-13T04:21:17;4.90;99.90
22680;DHT22;11507;44.858;10.374;2023-03-13T04:23:49;5.00;99.90
22680;DHT22;11507;44.858;10.374;2023-03-13T04:26:15;5.10;99.90
22680;DHT22;11507;44.858;10.374;2023-03-13T04:28:41;5.00;99.90
22680;DHT22;11507;44.858;10.374;2023-03-13T04:31:09;5.00;99.90
22680;DHT22;11507;44.858;10.374;2023-03-13T04:34:03;5.00;99.90
22680;DHT22;11507;44.858;10.374;2023-03-13T04:36:52;4.90;99.90
22680;DHT22;11507;44.858;10.374;2023-03-13T04:39:38;4.90;99.90
22680;DHT22;11507;44.858;10.374;2023-03-13T04:42:13;4.90;99.90
22680;DHT22;11507;44.858;10.374;2023-03-13T04:44:50;4.90;99.90
22680;DHT22;11507;44.858;10.374;2023-03-13T04:47:26;5.00;99.90
22680;DHT22;11507;44.858;10.374;2023-03-13T04:50:11;5.10;99.90
22680;DHT22;11507;44.858;10.374;2023-03-13T04:52:45;5.10;99.90
22680;DHT22;11507;44.858;10.374;2023-03-13T04:55:31;5.20;99.90
22680;DHT22;11507;44.858;10.374;2023-03-13T04:58:16;5.30;99.90
22680;DHT22;11507;44.858;10.374;2023-03-13T05:01:04;5.30;99.90
22680;DHT22;11507;44.858;10.374;2023-03-13T05:03:42;5.30;99.90
22680;DHT22;11507;44.858;10.374;2023-03-13T05:06:24;5.20;99.90
22680;DHT22;11507;44.858;10.374;2023-03-13T05:09:02;5.20;99.90
22680;DHT22;11507;44.858;10.374;2023-03-13T05:12:01;5.10;99.90
22680;DHT22;11507;44.858;10.374;2023-03-13T05:14:47;5.10;99.90
22680;DHT22;11507;44.858;10.374;2023-03-13T05:17:37;5.10;99.90
22680;DHT22;11507;44.858;10.374;2023-03-13T05:20:26;5.10;99.90
22680;DHT22;11507;44.858;10.374;2023-03-13T05:23:09;5.10;99.90
22680;DHT22;11507;44.858;10.374;2023-03-13T05:25:56;5.10;99.90
22680;DHT22;11507;44.858;10.374;2023-03-13T05:28:39;5.10;99.90
22680;DHT22;11507;44.858;10.374;2023-03-13T05:31:28;5.10;99.90
22680;DHT22;11507;44.858;10.374;2023-03-13T05:34:12;5.20;99.90
22680;DHT22;11507;44.858;10.374;2023-03-13T05:37:02;5.30;99.90
22680;DHT22;11507;44.858;10.374;2023-03-13T05:39:31;5.40;99.90
22680;DHT22;11507;44.858;10.374;2023-03-13T05:42:26;5.40;99.90
22680;DHT22;11507;44.858;10.374;2023-03-13T05:45:02;5.50;99.90
22680;DHT22;11507;44.858;10.374;2023-03-13T05:47:31;5.50;99.90
22680;DHT22;11507;44.858;10.374;2023-03-13T05:50:27;5.50;99.90
22680;DHT22;11507;44.858;10.374;2023-03-13T05:53:11;5.50;99.90
22680;DHT22;11507;44.858;10.374;2023-03-13T05:56:00;5.60;99.90
22680;DHT22;11507;44.858;10.374;2023-03-13T05:58:41;5.60;99.90
22680;DHT22;11507;44.858;10.374;2023-03-13T06:01:28;5.60;99.90
22680;DHT22;11507;44.858;10.374;2023-03-13T06:04:18;5.50;99.90
22680;DHT22;11507;44.858;10.374;2023-03-13T06:06:47;5.60;99.90
22680;DHT22;11507;44.858;10.374;2023-03-13T06:09:14;5.60;99.90
22680;DHT22;11507;44.858;10.374;2023-03-13T06:11:44;5.60;99.90
22680;DHT22;11507;44.858;10.374;2023-03-13T06:14:12;5.60;99.90
22680;DHT22;11507;44.858;10.374;2023-03-13T06:17:01;5.60;99.90
22680;DHT22;11507;44.858;10.374;2023-03-13T06:19:29;5.70;99.90
22680;DHT22;11507;44.858;10.374;2023-03-13T06:21:57;5.70;99.90
22680;DHT22;11507;44.858;10.374;2023-03-13T06:24:27;5.80;99.90
22680;DHT22;11507;44.858;10.374;2023-03-13T06:26:52;5.90;99.90
22680;DHT22;11507;44.858;10.374;2023-03-13T06:29:18;5.90;99.90
22680;DHT22;11507;44.858;10.374;2023-03-13T06:31:44;6.10;99.90
22680;DHT22;11507;44.858;10.374;2023-03-13T06:34:13;6.20;99.90
22680;DHT22;11507;44.858;10.374;2023-03-13T06:36:39;6.40;99.90
22680;DHT22;11507;44.858;10.374;2023-03-13T06:39:05;6.50;99.90
22680;DHT22;11507;44.858;10.374;2023-03-13T06:41:32;6.70;99.90
22680;DHT22;11507;44.858;10.374;2023-03-13T06:43:58;6.80;99.90
22680;DHT22;11507;44.858;10.374;2023-03-13T06:46:24;6.90;99.90
22680;DHT22;11507;44.858;10.374;2023-03-13T06:48:50;7.10;99.90
22680;DHT22;11507;44.858;10.374;2023-03-13T06:51:18;7.10;99.90
22680;DHT22;11507;44.858;10.374;2023-03-13T06:53:45;7.20;99.90
22680;DHT22;11507;44.858;10.374;2023-03-13T06:56:11;7.30;99.90
22680;DHT22;11507;44.858;10.374;2023-03-13T06:58:40;7.30;99.90
22680;DHT22;11507;44.858;10.374;2023-03-13T07:01:10;7.40;99.90
22680;DHT22;11507;44.858;10.374;2023-03-13T07:03:37;7.50;99.90
22680;DHT22;11507;44.858;10.374;2023-03-13T07:06:04;7.70;99.90
22680;DHT22;11507;44.858;10.374;2023-03-13T07:08:31;8.00;99.90
22680;DHT22;11507;44.858;10.374;2023-03-13T07:10:59;8.30;99.90
22680;DHT22;11507;44.858;10.374;2023-03-13T07:13:25;8.60;99.90
22680;DHT22;11507;44.858;10.374;2023-03-13T07:15:51;8.90;99.90
22680;DHT22;11507;44.858;10.374;2023-03-13T07:18:19;9.20;99.90
22680;DHT22;11507;44.858;10.374;2023-03-13T07:20:53;9.50;99.90
22680;DHT22;11507;44.858;10.374;2023-03-13T07:23:21;9.90;99.90
22680;DHT22;11507;44.858;10.374;2023-03-13T07:26:02;10.20;99.90
22680;DHT22;11507;44.858;10.374;2023-03-13T07:28:28;10.50;99.90
22680;DHT22;11507;44.858;10.374;2023-03-13T07:31:02;10.60;99.90
22680;DHT22;11507;44.858;10.374;2023-03-13T07:33:30;10.80;99.90
22680;DHT22;11507;44.858;10.374;2023-03-13T07:35:55;10.90;99.90
22680;DHT22;11507;44.858;10.374;2023-03-13T07:38:21;10.90;99.90
22680;DHT22;11507;44.858;10.374;2023-03-13T07:40:50;10.90;99.90
22680;DHT22;11507;44.858;10.374;2023-03-13T07:43:17;11.00;99.90
22680;DHT22;11507;44.858;10.374;2023-03-13T07:48:25;11.30;99.90
22680;DHT22;11507;44.858;10.374;2023-03-13T07:50:54;11.30;99.90
22680;DHT22;11507;44.858;10.374;2023-03-13T07:53:20;11.50;99.90
22680;DHT22;11507;44.858;10.374;2023-03-13T07:55:57;11.70;99.90
22680;DHT22;11507;44.858;10.374;2023-03-13T07:58:24;12.00;99.90
22680;DHT22;11507;44.858;10.374;2023-03-13T08:00:50;12.20;99.90
22680;DHT22;11507;44.858;10.374;2023-03-13T08:03:16;12.30;99.90
22680;DHT22;11507;44.858;10.374;2023-03-13T08:05:42;12.30;99.90
22680;DHT22;11507;44.858;10.374;2023-03-13T08:08:08;12.50;99.90
22680;DHT22;11507;44.858;10.374;2023-03-13T08:10:34;12.70;99.90
22680;DHT22;11507;44.858;10.374;2023-03-13T08:12:59;12.70;99.90
22680;DHT22;11507;44.858;10.374;2023-03-13T08:15:25;12.60;99.90
22680;DHT22;11507;44.858;10.374;2023-03-13T08:17:54;12.60;99.90
22680;DHT22;11507;44.858;10.374;2023-03-13T08:20:20;12.60;99.90
22680;DHT22;11507;44.858;10.374;2023-03-13T08:22:47;12.50;99.90
22680;DHT22;11507;44.858;10.374;2023-03-13T08:25:14;12.40;99.90
22680;DHT22;11507;44.858;10.374;2023-03-13T08:27:39;12.50;99.90
22680;DHT22;11507;44.858;10.374;2023-03-13T08:30:06;12.70;99.90
22680;DHT22;11507;44.858;10.374;2023-03-13T08:32:33;12.70;99.90
22680;DHT22;11507;44.858;10.374;2023-03-13T08:34:59;13.00;99.90
22680;DHT22;11507;44.858;10.374;2023-03-13T08:37:24;13.20;99.90
22680;DHT22;11507;44.858;10.374;2023-03-13T08:39:50;13.50;99.90
22680;DHT22;11507;44.858;10.374;2023-03-13T08:42:18;13.90;99.90
22680;DHT22;11507;44.858;10.374;2023-03-13T08:44:44;14.30;99.90
22680;DHT22;11507;44.858;10.374;2023-03-13T08:47:10;14.30;99.90
22680;DHT22;11507;44.858;10.374;2023-03-13T08:49:36;14.70;99.90
22680;DHT22;11507;44.858;10.374;2023-03-13T08:52:03;14.70;99.90
22680;DHT22;11507;44.858;10.374;2023-03-13T08:54:30;15.10;99.90
22680;DHT22;11507;44.858;10.374;2023-03-13T08:56:56;15.50;99.90
22680;DHT22;11507;44.858;10.374;2023-03-13T08:59:22;15.60;99.90
22680;DHT22;11507;44.858;10.374;2023-03-13T09:01:47;15.50;99.90
22680;DHT22;11507;44.858;10.374;2023-03-13T09:04:13;16.00;99.90
22680;DHT22;11507;44.858;10.374;2023-03-13T09:06:40;15.90;99.90
22680;DHT22;11507;44.858;10.374;2023-03-13T09:09:06;16.10;99.90
22680;DHT22;11507;44.858;10.374;2023-03-13T09:11:33;16.40;99.90
22680;DHT22;11507;44.858;10.374;2023-03-13T09:14:00;16.90;99.90
22680;DHT22;11507;44.858;10.374;2023-03-13T09:16:29;17.10;99.90
22680;DHT22;11507;44.858;10.374;2023-03-13T09:18:55;17.20;99.90
22680;DHT22;11507;44.858;10.374;2023-03-13T09:21:29;17.50;99.90
22680;DHT22;11507;44.858;10.374;2023-03-13T09:23:56;17.60;99.90
22680;DHT22;11507;44.858;10.374;2023-03-13T09:26:23;17.90;99.90
22680;DHT22;11507;44.858;10.374;2023-03-13T09:28:50;17.90;99.90
22680;DHT22;11507;44.858;10.374;2023-03-13T09:31:22;18.20;99.90
22680;DHT22;11507;44.858;10.374;2023-03-13T09:33:49;18.60;99.90
22680;DHT22;11507;44.858;10.374;2023-03-13T09:36:17;18.60;99.90
22680;DHT22;11507;44.858;10.374;2023-03-13T09:38:43;18.40;99.90
22680;DHT22;11507;44.858;10.374;2023-03-13T09:44:19;17.70;99.90
22680;DHT22;11507;44.858;10.374;2023-03-13T09:49:39;17.60;99.90
22680;DHT22;11507;44.858;10.374;2023-03-13T09:52:24;17.80;99.90
22680;DHT22;11507;44.858;10.374;2023-03-13T09:54:57;18.00;99.90
22680;DHT22;11507;44.858;10.374;2023-03-13T10:00:06;18.20;99.90
22680;DHT22;11507;44.858;10.374;2023-03-13T10:02:37;17.90;99.90
22680;DHT22;11507;44.858;10.374;2023-03-13T10:05:24;17.80;99.90
22680;DHT22;11507;44.858;10.374;2023-03-13T10:07:56;17.70;99.90
22680;DHT22;11507;44.858;10.374;2023-03-13T10:11:36;17.80;99.90
22680;DHT22;11507;44.858;10.374;2023-03-13T10:13:37;17.90;99.90
22680;DHT22;11507;44.858;10.374;2023-03-13T10:16:17;18.00;99.90
22680;DHT22;11507;44.858;10.374;2023-03-13T10:18:47;17.50;99.90
22680;DHT22;11507;44.858;10.374;2023-03-13T10:21:19;17.50;99.90
22680;DHT22;11507;44.858;10.374;2023-03-13T10:23:51;17.70;99.90
22680;DHT22;11507;44.858;10.374;2023-03-13T10:26:23;17.80;99.90
22680;DHT22;11507;44.858;10.374;2023-03-13T10:28:51;18.20;99.90
22680;DHT22;11507;44.858;10.374;2023-03-13T10:31:30;18.30;99.90
22680;DHT22;11507;44.858;10.374;2023-03-13T10:34:11;19.10;99.90
22680;DHT22;11507;44.858;10.374;2023-03-13T10:36:46;19.30;99.90
22680;DHT22;11507;44.858;10.374;2023-03-13T10:39:18;20.00;99.90
22680;DHT22;11507;44.858;10.374;2023-03-13T10:41:47;20.00;99.90
22680;DHT22;11507;44.858;10.374;2023-03-13T10:44:18;19.80;99.90
22680;DHT22;11507;44.858;10.374;2023-03-13T10:46:47;20.20;99.90
22680;DHT22;11507;44.858;10.374;2023-03-13T10:49:18;20.80;99.90
22680;DHT22;11507;44.858;10.374;2023-03-13T10:51:59;21.30;99.30
22680;DHT22;11507;44.858;10.374;2023-03-13T10:54:44;21.20;97.30
22680;DHT22;11507;44.858;10.374;2023-03-13T10:59:45;21.70;97.70
22680;DHT22;11507;44.858;10.374;2023-03-13T11:02:33;22.20;96.90
22680;DHT22;11507;44.858;10.374;2023-03-13T11:05:01;22.30;95.40
22680;DHT22;11507;44.858;10.374;2023-03-13T11:07:34;22.30;96.40
22680;DHT22;11507;44.858;10.374;2023-03-13T11:10:02;22.50;95.70
22680;DHT22;11507;44.858;10.374;2023-03-13T11:12:33;22.30;94.80
22680;DHT22;11507;44.858;10.374;2023-03-13T11:15:19;22.00;94.80
22680;DHT22;11507;44.858;10.374;2023-03-13T11:18:18;21.70;96.10
22680;DHT22;11507;44.858;10.374;2023-03-13T11:20:47;21.70;97.20
22680;DHT22;11507;44.858;10.374;2023-03-13T11:23:46;22.10;96.00
22680;DHT22;11507;44.858;10.374;2023-03-13T11:31:43;23.90;92.50
22680;DHT22;11507;44.858;10.374;2023-03-13T11:37:12;24.80;91.60
22680;DHT22;11507;44.858;10.374;2023-03-13T11:48:02;27.20;80.90
22680;DHT22;11507;44.858;10.374;2023-03-13T11:51:02;27.60;80.00
22680;DHT22;11507;44.858;10.374;2023-03-13T11:56:14;27.60;78.60
22680;DHT22;11507;44.858;10.374;2023-03-13T12:01:57;29.30;73.10
22680;DHT22;11507;44.858;10.374;2023-03-13T12:04:29;29.80;68.90
22680;DHT22;11507;44.858;10.374;2023-03-13T12:06:59;30.00;67.80
22680;DHT22;11507;44.858;10.374;2023-03-13T12:09:31;30.10;65.90
22680;DHT22;11507;44.858;10.374;2023-03-13T12:12:25;30.60;64.70
22680;DHT22;11507;44.858;10.374;2023-03-13T12:17:59;30.10;61.10
22680;DHT22;11507;44.858;10.374;2023-03-13T12:20:55;30.70;64.30
22680;DHT22;11507;44.858;10.374;2023-03-13T12:23:35;30.70;62.70
22680;DHT22;11507;44.858;10.374;2023-03-13T12:26:20;30.80;58.80
22680;DHT22;11507;44.858;10.374;2023-03-13T12:29:19;29.90;59.30
22680;DHT22;11507;44.858;10.374;2023-03-13T12:37:25;29.20;60.60
22680;DHT22;11507;44.858;10.374;2023-03-13T12:39:55;29.30;62.10
22680;DHT22;11507;44.858;10.374;2023-03-13T12:42:45;29.00;60.80
22680;DHT22;11507;44.858;10.374;2023-03-13T12:45:16;28.30;61.00
22680;DHT22;11507;44.858;10.374;2023-03-13T12:59:15;22.20;75.10
22680;DHT22;11507;44.858;10.374;2023-03-13T13:01:52;21.80;78.30
22680;DHT22;11507;44.858;10.374;2023-03-13T13:04:22;21.60;80.20
22680;DHT22;11507;44.858;10.374;2023-03-13T13:09:24;20.80;83.90
22680;DHT22;11507;44.858;10.374;2023-03-13T13:11:53;20.90;83.50
22680;DHT22;11507;44.858;10.374;2023-03-13T13:16:48;20.90;83.10
22680;DHT22;11507;44.858;10.374;2023-03-13T13:24:59;21.00;84.00
22680;DHT22;11507;44.858;10.374;2023-03-13T13:35:45;22.00;79.80
22680;DHT22;11507;44.858;10.374;2023-03-13T13:43:46;25.80;76.90
22680;DHT22;11507;44.858;10.374;2023-03-13T13:46:23;27.30;65.90
22680;DHT22;11507;44.858;10.374;2023-03-13T13:51:36;28.50;61.40
22680;DHT22;11507;44.858;10.374;2023-03-13T13:54:03;27.10;61.00
22680;DHT22;11507;44.858;10.374;2023-03-13T13:57:18;26.50;62.20
22680;DHT22;11507;44.858;10.374;2023-03-13T13:59:42;26.30;67.30
22680;DHT22;11507;44.858;10.374;2023-03-13T14:02:19;26.80;64.50
22680;DHT22;11507;44.858;10.374;2023-03-13T14:07:24;28.10;63.00
22680;DHT22;11507;44.858;10.374;2023-03-13T14:12:56;30.40;59.70
22680;DHT22;11507;44.858;10.374;2023-03-13T14:15:24;31.30;57.40
22680;DHT22;11507;44.858;10.374;2023-03-13T14:17:53;32.00;55.90
22680;DHT22;11507;44.858;10.374;2023-03-13T14:20:34;32.10;53.70
22680;DHT22;11507;44.858;10.374;2023-03-13T14:23:03;32.30;53.70
22680;DHT22;11507;44.858;10.374;2023-03-13T14:25:45;32.60;51.80
22680;DHT22;11507;44.858;10.374;2023-03-13T14:28:21;32.20;50.30
22680;DHT22;11507;44.858;10.374;2023-03-13T14:30:50;31.60;52.80
22680;DHT22;11507;44.858;10.374;2023-03-13T14:33:17;31.10;52.80
22680;DHT22;11507;44.858;10.374;2023-03-13T14:35:44;30.70;52.20
22680;DHT22;11507;44.858;10.374;2023-03-13T14:38:25;30.10;53.20
22680;DHT22;11507;44.858;10.374;2023-03-13T14:40:52;28.80;53.70
22680;DHT22;11507;44.858;10.374;2023-03-13T14:45:46;26.80;57.20
22680;DHT22;11507;44.858;10.374;2023-03-13T14:50:47;25.10;60.30
22680;DHT22;11507;44.858;10.374;2023-03-13T14:53:19;24.40;63.00
22680;DHT22;11507;44.858;10.374;2023-03-13T14:55:46;23.80;65.60
22680;DHT22;11507;44.858;10.374;2023-03-13T14:58:27;23.40;67.20
22680;DHT22;11507;44.858;10.374;2023-03-13T15:00:54;22.90;67.80
22680;DHT22;11507;44.858;10.374;2023-03-13T15:03:23;22.60;69.30
22680;DHT22;11507;44.858;10.374;2023-03-13T15:08:39;22.60;71.50
22680;DHT22;11507;44.858;10.374;2023-03-13T15:11:26;23.50;71.10
22680;DHT22;11507;44.858;10.374;2023-03-13T15:13:54;24.60;66.10
22680;DHT22;11507;44.858;10.374;2023-03-13T15:16:21;25.10;64.40
22680;DHT22;11507;44.858;10.374;2023-03-13T15:18:49;25.40;63.30
22680;DHT22;11507;44.858;10.374;2023-03-13T15:23:47;24.90;65.40
22680;DHT22;11507;44.858;10.374;2023-03-13T15:26:14;24.20;66.40
22680;DHT22;11507;44.858;10.374;2023-03-13T15:28:40;23.50;66.90
22680;DHT22;11507;44.858;10.374;2023-03-13T15:31:06;22.80;68.60
22680;DHT22;11507;44.858;10.374;2023-03-13T15:33:33;22.40;71.00
22680;DHT22;11507;44.858;10.374;2023-03-13T15:35:59;21.90;73.10
22680;DHT22;11507;44.858;10.374;2023-03-13T15:38:26;21.60;73.80
22680;DHT22;11507;44.858;10.374;2023-03-13T15:40:52;21.40;74.20
22680;DHT22;11507;44.858;10.374;2023-03-13T15:43:20;21.10;76.20
22680;DHT22;11507;44.858;10.374;2023-03-13T15:45:47;20.50;76.70
22680;DHT22;11507;44.858;10.374;2023-03-13T15:48:27;20.10;78.60
22680;DHT22;11507;44.858;10.374;2023-03-13T15:50:57;19.80;79.40
22680;DHT22;11507;44.858;10.374;2023-03-13T15:53:31;19.70;80.90
22680;DHT22;11507;44.858;10.374;2023-03-13T15:55:59;19.50;81.50
22680;DHT22;11507;44.858;10.374;2023-03-13T15:58:27;19.30;82.00
22680;DHT22;11507;44.858;10.374;2023-03-13T16:00:53;19.00;83.10
22680;DHT22;11507;44.858;10.374;2023-03-13T16:03:27;18.80;84.90
22680;DHT22;11507;44.858;10.374;2023-03-13T16:05:54;18.80;86.10
22680;DHT22;11507;44.858;10.374;2023-03-13T16:08:24;18.70;86.70
22680;DHT22;11507;44.858;10.374;2023-03-13T16:10:50;18.40;88.50
22680;DHT22;11507;44.858;10.374;2023-03-13T16:13:16;18.20;89.50
22680;DHT22;11507;44.858;10.374;2023-03-13T16:15:44;18.00;90.40
22680;DHT22;11507;44.858;10.374;2023-03-13T16:18:18;17.90;92.00
22680;DHT22;11507;44.858;10.374;2023-03-13T16:20:45;17.70;93.90
22680;DHT22;11507;44.858;10.374;2023-03-13T16:23:11;17.40;95.40
22680;DHT22;11507;44.858;10.374;2023-03-13T16:25:37;17.30;96.40
22680;DHT22;11507;44.858;10.374;2023-03-13T16:28:05;17.20;98.00
22680;DHT22;11507;44.858;10.374;2023-03-13T16:30:38;17.10;99.90
22680;DHT22;11507;44.858;10.374;2023-03-13T16:33:12;16.90;99.90
22680;DHT22;11507;44.858;10.374;2023-03-13T16:35:38;16.80;99.90
22680;DHT22;11507;44.858;10.374;2023-03-13T16:38:04;16.70;99.90
22680;DHT22;11507;44.858;10.374;2023-03-13T16:40:34;16.70;99.90
22680;DHT22;11507;44.858;10.374;2023-03-13T16:43:00;16.50;99.90
22680;DHT22;11507;44.858;10.374;2023-03-13T16:45:26;16.30;99.90
22680;DHT22;11507;44.858;10.374;2023-03-13T16:47:52;16.20;99.90
22680;DHT22;11507;44.858;10.374;2023-03-13T16:50:32;16.20;99.90
22680;DHT22;11507;44.858;10.374;2023-03-13T16:52:59;16.10;99.90
22680;DHT22;11507;44.858;10.374;2023-03-13T16:55:25;16.00;99.90
22680;DHT22;11507;44.858;10.374;2023-03-13T16:57:56;15.90;99.90
22680;DHT22;11507;44.858;10.374;2023-03-13T17:00:24;15.80;99.90
22680;DHT22;11507;44.858;10.374;2023-03-13T17:02:50;15.70;99.90
22680;DHT22;11507;44.858;10.374;2023-03-13T17:05:17;15.70;99.90
22680;DHT22;11507;44.858;10.374;2023-03-13T17:07:44;15.60;99.90
22680;DHT22;11507;44.858;10.374;2023-03-13T17:10:19;15.50;99.90
22680;DHT22;11507;44.858;10.374;2023-03-13T17:12:47;15.40;99.90
22680;DHT22;11507;44.858;10.374;2023-03-13T17:15:13;15.40;99.90
22680;DHT22;11507;44.858;10.374;2023-03-13T17:17:39;15.40;99.90
22680;DHT22;11507;44.858;10.374;2023-03-13T17:20:06;15.30;99.90
22680;DHT22;11507;44.858;10.374;2023-03-13T17:22:34;15.20;99.90
22680;DHT22;11507;44.858;10.374;2023-03-13T17:25:01;15.20;99.90
22680;DHT22;11507;44.858;10.374;2023-03-13T17:27:27;15.10;99.90
22680;DHT22;11507;44.858;10.374;2023-03-13T17:29:53;15.10;99.90
22680;DHT22;11507;44.858;10.374;2023-03-13T17:32:19;15.10;99.90